sensor_id;sensor_type;location;lat;lon;timestamp;P1;durP1;ratioP1;P2;durP2;ratioP2
44328;SDS011;30039;51.462;6.892;2023-05-07T00:02:33;5.88;;;3.85;;
44328;SDS011;30039;51.462;6.892;2023-05-07T00:05:19;6.05;;;3.45;;
44328;SDS011;30039;51.462;6.892;2023-05-07T00:08:04;6.35;;;3.90;;
44328;SDS011;30039;51.462;6.892;2023-05-07T00:10:51;8.25;;;4.55;;
44328;SDS011;30039;51.462;6.892;2023-05-07T00:13:37;5.47;;;4.07;;
44328;SDS011;30039;51.462;6.892;2023-05-07T00:16:23;6.45;;;4.00;;
44328;SDS011;30039;51.462;6.892;2023-05-07T00:19:08;6.05;;;3.75;;
44328;SDS011;30039;51.462;6.892;2023-05-07T00:21:54;6.32;;;4.07;;
44328;SDS011;30039;51.462;6.892;2023-05-07T00:24:41;7.75;;;3.95;;
44328;SDS011;30039;51.462;6.892;2023-05-07T00:27:26;6.35;;;3.65;;
44328;SDS011;30039;51.462;6.892;2023-05-07T00:30:12;7.47;;;4.22;;
44328;SDS011;30039;51.462;6.892;2023-05-07T00:32:58;6.05;;;4.22;;
44328;SDS011;30039;51.462;6.892;2023-05-07T00:35:43;8.32;;;4.43;;
44328;SDS011;30039;51.462;6.892;2023-05-07T00:38:29;5.25;;;4.07;;
44328;SDS011;30039;51.462;6.892;2023-05-07T00:41:15;7.47;;;5.30;;
44328;SDS011;30039;51.462;6.892;2023-05-07T00:44:01;7.05;;;4.90;;
44328;SDS011;30039;51.462;6.892;2023-05-07T00:46:48;6.95;;;4.30;;
44328;SDS011;30039;51.462;6.892;2023-05-07T00:49:39;8.02;;;4.82;;
44328;SDS011;30039;51.462;6.892;2023-05-07T00:52:25;7.45;;;4.97;;
44328;SDS011;30039;51.462;6.892;2023-05-07T00:55:11;6.88;;;4.95;;
44328;SDS011;30039;51.462;6.892;2023-05-07T00:57:58;7.15;;;5.32;;
44328;SDS011;30039;51.462;6.892;2023-05-07T01:00:44;9.52;;;4.95;;
44328;SDS011;30039;51.462;6.892;2023-05-07T01:03:29;7.63;;;4.45;;
44328;SDS011;30039;51.462;6.892;2023-05-07T01:06:15;7.93;;;4.97;;
44328;SDS011;30039;51.462;6.892;2023-05-07T01:09:02;7.57;;;5.25;;
44328;SDS011;30039;51.462;6.892;2023-05-07T01:11:50;11.52;;;5.97;;
44328;SDS011;30039;51.462;6.892;2023-05-07T01:14:36;7.53;;;5.38;;
44328;SDS011;30039;51.462;6.892;2023-05-07T01:17:21;10.13;;;5.63;;
44328;SDS011;30039;51.462;6.892;2023-05-07T01:20:07;8.43;;;5.85;;
44328;SDS011;30039;51.462;6.892;2023-05-07T01:22:53;6.47;;;4.82;;
44328;SDS011;30039;51.462;6.892;2023-05-07T01:25:40;8.27;;;5.47;;
44328;SDS011;30039;51.462;6.892;2023-05-07T01:28:25;13.25;;;6.60;;
44328;SDS011;30039;51.462;6.892;2023-05-07T01:31:11;9.07;;;6.10;;
44328;SDS011;30039;51.462;6.892;2023-05-07T01:33:57;11.90;;;6.35;;
44328;SDS011;30039;51.462;6.892;2023-05-07T01:36:44;8.90;;;6.18;;
44328;SDS011;30039;51.462;6.892;2023-05-07T01:39:31;11.15;;;6.55;;
44328;SDS011;30039;51.462;6.892;2023-05-07T01:42:18;7.43;;;5.50;;
44328;SDS011;30039;51.462;6.892;2023-05-07T01:45:04;10.25;;;6.50;;
44328;SDS011;30039;51.462;6.892;2023-05-07T01:47:49;11.77;;;6.40;;
44328;SDS011;30039;51.462;6.892;2023-05-07T01:50:35;7.55;;;5.65;;
44328;SDS011;30039;51.462;6.892;2023-05-07T01:53:22;7.68;;;5.75;;
44328;SDS011;30039;51.462;6.892;2023-05-07T01:56:07;7.57;;;5.50;;
44328;SDS011;30039;51.462;6.892;2023-05-07T01:58:53;8.30;;;6.00;;
44328;SDS011;30039;51.462;6.892;2023-05-07T02:01:39;8.27;;;5.80;;
44328;SDS011;30039;51.462;6.892;2023-05-07T02:04:24;8.23;;;6.15;;
44328;SDS011;30039;51.462;6.892;2023-05-07T02:07:10;8.85;;;6.32;;
44328;SDS011;30039;51.462;6.892;2023-05-07T02:09:56;9.48;;;6.38;;
44328;SDS011;30039;51.462;6.892;2023-05-07T02:12:41;9.63;;;6.35;;
44328;SDS011;30039;51.462;6.892;2023-05-07T02:15:28;10.65;;;6.65;;
44328;SDS011;30039;51.462;6.892;2023-05-07T02:18:13;9.55;;;6.00;;
44328;SDS011;30039;51.462;6.892;2023-05-07T02:20:59;6.07;;;5.10;;
44328;SDS011;30039;51.462;6.892;2023-05-07T02:23:44;11.52;;;6.88;;
44328;SDS011;30039;51.462;6.892;2023-05-07T02:26:31;8.65;;;6.05;;
44328;SDS011;30039;51.462;6.892;2023-05-07T02:29:16;9.00;;;6.60;;
44328;SDS011;30039;51.462;6.892;2023-05-07T02:32:02;8.57;;;6.00;;
44328;SDS011;30039;51.462;6.892;2023-05-07T02:34:49;8.10;;;6.05;;
44328;SDS011;30039;51.462;6.892;2023-05-07T02:37:35;12.15;;;6.85;;
44328;SDS011;30039;51.462;6.892;2023-05-07T02:40:21;9.60;;;6.72;;
44328;SDS011;30039;51.462;6.892;2023-05-07T02:43:06;11.45;;;7.18;;
44328;SDS011;30039;51.462;6.892;2023-05-07T02:46:10;11.60;;;6.90;;
44328;SDS011;30039;51.462;6.892;2023-05-07T02:48:56;11.85;;;7.13;;
44328;SDS011;30039;51.462;6.892;2023-05-07T02:51:42;9.25;;;6.22;;
44328;SDS011;30039;51.462;6.892;2023-05-07T02:54:27;11.32;;;7.03;;
44328;SDS011;30039;51.462;6.892;2023-05-07T02:57:13;11.23;;;6.53;;
44328;SDS011;30039;51.462;6.892;2023-05-07T02:59:58;10.65;;;7.65;;
44328;SDS011;30039;51.462;6.892;2023-05-07T03:02:44;8.57;;;6.35;;
44328;SDS011;30039;51.462;6.892;2023-05-07T03:05:30;9.73;;;7.78;;
44328;SDS011;30039;51.462;6.892;2023-05-07T03:08:16;10.13;;;7.57;;
44328;SDS011;30039;51.462;6.892;2023-05-07T03:11:02;16.13;;;8.10;;
44328;SDS011;30039;51.462;6.892;2023-05-07T03:13:48;10.77;;;7.35;;
44328;SDS011;30039;51.462;6.892;2023-05-07T03:16:35;12.27;;;7.75;;
44328;SDS011;30039;51.462;6.892;2023-05-07T03:19:20;14.05;;;8.07;;
44328;SDS011;30039;51.462;6.892;2023-05-07T03:22:06;13.27;;;8.65;;
44328;SDS011;30039;51.462;6.892;2023-05-07T03:24:52;14.30;;;8.35;;
44328;SDS011;30039;51.462;6.892;2023-05-07T03:27:37;11.88;;;8.48;;
44328;SDS011;30039;51.462;6.892;2023-05-07T03:30:23;13.05;;;8.60;;
44328;SDS011;30039;51.462;6.892;2023-05-07T03:33:10;12.43;;;8.48;;
44328;SDS011;30039;51.462;6.892;2023-05-07T03:35:55;12.85;;;9.25;;
44328;SDS011;30039;51.462;6.892;2023-05-07T03:38:41;12.48;;;9.05;;
44328;SDS011;30039;51.462;6.892;2023-05-07T03:41:27;12.95;;;9.40;;
44328;SDS011;30039;51.462;6.892;2023-05-07T03:44:13;11.25;;;8.63;;
44328;SDS011;30039;51.462;6.892;2023-05-07T03:46:58;16.35;;;10.13;;
44328;SDS011;30039;51.462;6.892;2023-05-07T03:49:44;12.10;;;9.75;;
44328;SDS011;30039;51.462;6.892;2023-05-07T03:52:30;13.77;;;9.02;;
44328;SDS011;30039;51.462;6.892;2023-05-07T03:55:16;13.43;;;10.25;;
44328;SDS011;30039;51.462;6.892;2023-05-07T03:58:01;12.75;;;9.88;;
44328;SDS011;30039;51.462;6.892;2023-05-07T04:00:47;13.98;;;9.98;;
44328;SDS011;30039;51.462;6.892;2023-05-07T04:03:33;15.43;;;10.15;;
44328;SDS011;30039;51.462;6.892;2023-05-07T04:06:19;13.50;;;9.32;;
44328;SDS011;30039;51.462;6.892;2023-05-07T04:09:04;14.13;;;10.15;;
44328;SDS011;30039;51.462;6.892;2023-05-07T04:11:50;13.77;;;9.95;;
44328;SDS011;30039;51.462;6.892;2023-05-07T04:14:35;17.90;;;10.75;;
44328;SDS011;30039;51.462;6.892;2023-05-07T04:17:21;13.30;;;10.18;;
44328;SDS011;30039;51.462;6.892;2023-05-07T04:20:10;13.45;;;9.73;;
44328;SDS011;30039;51.462;6.892;2023-05-07T04:22:56;13.35;;;10.35;;
44328;SDS011;30039;51.462;6.892;2023-05-07T04:25:41;13.00;;;9.73;;
44328;SDS011;30039;51.462;6.892;2023-05-07T04:28:27;14.82;;;10.38;;
44328;SDS011;30039;51.462;6.892;2023-05-07T04:31:13;13.10;;;10.15;;
44328;SDS011;30039;51.462;6.892;2023-05-07T04:33:58;13.55;;;10.95;;
44328;SDS011;30039;51.462;6.892;2023-05-07T04:36:44;16.98;;;11.48;;
44328;SDS011;30039;51.462;6.892;2023-05-07T04:39:30;18.10;;;10.80;;
44328;SDS011;30039;51.462;6.892;2023-05-07T04:42:15;13.02;;;10.65;;
44328;SDS011;30039;51.462;6.892;2023-05-07T04:45:02;14.10;;;10.32;;
44328;SDS011;30039;51.462;6.892;2023-05-07T04:47:47;13.07;;;9.85;;
44328;SDS011;30039;51.462;6.892;2023-05-07T04:50:33;14.15;;;10.98;;
44328;SDS011;30039;51.462;6.892;2023-05-07T04:53:19;13.43;;;10.75;;
44328;SDS011;30039;51.462;6.892;2023-05-07T04:56:05;14.88;;;10.98;;
44328;SDS011;30039;51.462;6.892;2023-05-07T04:58:51;14.75;;;11.85;;
44328;SDS011;30039;51.462;6.892;2023-05-07T05:01:37;15.38;;;10.52;;
44328;SDS011;30039;51.462;6.892;2023-05-07T05:04:22;15.60;;;11.20;;
44328;SDS011;30039;51.462;6.892;2023-05-07T05:07:08;17.85;;;11.07;;
44328;SDS011;30039;51.462;6.892;2023-05-07T05:09:54;16.50;;;10.32;;
44328;SDS011;30039;51.462;6.892;2023-05-07T05:12:40;16.48;;;11.07;;
44328;SDS011;30039;51.462;6.892;2023-05-07T05:15:26;13.80;;;10.80;;
44328;SDS011;30039;51.462;6.892;2023-05-07T05:18:12;15.95;;;10.88;;
44328;SDS011;30039;51.462;6.892;2023-05-07T05:20:57;16.52;;;11.65;;
44328;SDS011;30039;51.462;6.892;2023-05-07T05:23:43;16.75;;;11.50;;
44328;SDS011;30039;51.462;6.892;2023-05-07T05:26:28;14.13;;;10.63;;
44328;SDS011;30039;51.462;6.892;2023-05-07T05:29:15;15.98;;;11.25;;
44328;SDS011;30039;51.462;6.892;2023-05-07T05:32:01;16.45;;;11.52;;
44328;SDS011;30039;51.462;6.892;2023-05-07T05:34:47;16.50;;;11.40;;
44328;SDS011;30039;51.462;6.892;2023-05-07T05:37:33;13.18;;;10.00;;
44328;SDS011;30039;51.462;6.892;2023-05-07T05:40:19;16.95;;;10.48;;
44328;SDS011;30039;51.462;6.892;2023-05-07T05:43:05;13.18;;;9.65;;
44328;SDS011;30039;51.462;6.892;2023-05-07T05:45:50;12.55;;;9.55;;
44328;SDS011;30039;51.462;6.892;2023-05-07T05:48:36;14.00;;;9.32;;
44328;SDS011;30039;51.462;6.892;2023-05-07T05:51:22;13.82;;;9.38;;
44328;SDS011;30039;51.462;6.892;2023-05-07T05:54:08;12.48;;;8.90;;
44328;SDS011;30039;51.462;6.892;2023-05-07T05:56:54;13.80;;;9.57;;
44328;SDS011;30039;51.462;6.892;2023-05-07T05:59:39;10.73;;;8.60;;
44328;SDS011;30039;51.462;6.892;2023-05-07T06:02:25;10.20;;;7.97;;
44328;SDS011;30039;51.462;6.892;2023-05-07T06:05:11;12.85;;;8.50;;
44328;SDS011;30039;51.462;6.892;2023-05-07T06:07:56;11.05;;;8.25;;
44328;SDS011;30039;51.462;6.892;2023-05-07T06:10:42;11.80;;;8.10;;
44328;SDS011;30039;51.462;6.892;2023-05-07T06:13:28;12.75;;;8.25;;
44328;SDS011;30039;51.462;6.892;2023-05-07T06:16:14;10.73;;;7.53;;
44328;SDS011;30039;51.462;6.892;2023-05-07T06:18:59;11.88;;;7.03;;
44328;SDS011;30039;51.462;6.892;2023-05-07T06:21:46;9.32;;;7.05;;
44328;SDS011;30039;51.462;6.892;2023-05-07T06:24:32;8.93;;;6.43;;
44328;SDS011;30039;51.462;6.892;2023-05-07T06:27:17;7.53;;;5.88;;
44328;SDS011;30039;51.462;6.892;2023-05-07T06:30:03;9.57;;;6.28;;
44328;SDS011;30039;51.462;6.892;2023-05-07T06:32:49;11.07;;;6.38;;
44328;SDS011;30039;51.462;6.892;2023-05-07T06:35:34;11.77;;;5.93;;
44328;SDS011;30039;51.462;6.892;2023-05-07T06:38:20;8.48;;;5.55;;
44328;SDS011;30039;51.462;6.892;2023-05-07T06:41:06;7.63;;;5.88;;
44328;SDS011;30039;51.462;6.892;2023-05-07T06:43:51;7.32;;;5.60;;
44328;SDS011;30039;51.462;6.892;2023-05-07T06:46:37;8.65;;;5.78;;
44328;SDS011;30039;51.462;6.892;2023-05-07T06:49:23;6.75;;;5.00;;
44328;SDS011;30039;51.462;6.892;2023-05-07T06:52:08;6.97;;;5.07;;
44328;SDS011;30039;51.462;6.892;2023-05-07T06:54:54;8.48;;;5.20;;
44328;SDS011;30039;51.462;6.892;2023-05-07T06:57:40;8.63;;;5.00;;
44328;SDS011;30039;51.462;6.892;2023-05-07T07:00:25;7.70;;;5.78;;
44328;SDS011;30039;51.462;6.892;2023-05-07T07:03:11;8.23;;;5.20;;
44328;SDS011;30039;51.462;6.892;2023-05-07T07:05:57;7.90;;;5.55;;
44328;SDS011;30039;51.462;6.892;2023-05-07T07:08:43;8.35;;;4.53;;
44328;SDS011;30039;51.462;6.892;2023-05-07T07:11:30;7.05;;;4.95;;
44328;SDS011;30039;51.462;6.892;2023-05-07T07:14:16;8.20;;;5.65;;
44328;SDS011;30039;51.462;6.892;2023-05-07T07:17:03;7.45;;;4.60;;
44328;SDS011;30039;51.462;6.892;2023-05-07T07:19:50;6.72;;;4.60;;
44328;SDS011;30039;51.462;6.892;2023-05-07T07:22:36;9.43;;;5.30;;
44328;SDS011;30039;51.462;6.892;2023-05-07T07:25:21;5.82;;;4.25;;
44328;SDS011;30039;51.462;6.892;2023-05-07T07:28:07;7.65;;;4.40;;
44328;SDS011;30039;51.462;6.892;2023-05-07T07:30:52;5.75;;;3.88;;
44328;SDS011;30039;51.462;6.892;2023-05-07T07:33:38;7.07;;;3.88;;
44328;SDS011;30039;51.462;6.892;2023-05-07T07:36:24;7.97;;;3.78;;
44328;SDS011;30039;51.462;6.892;2023-05-07T07:39:11;8.55;;;3.72;;
44328;SDS011;30039;51.462;6.892;2023-05-07T07:41:57;6.82;;;3.90;;
44328;SDS011;30039;51.462;6.892;2023-05-07T07:44:42;4.13;;;3.45;;
44328;SDS011;30039;51.462;6.892;2023-05-07T07:47:28;4.90;;;3.63;;
44328;SDS011;30039;51.462;6.892;2023-05-07T07:50:13;4.60;;;3.40;;
44328;SDS011;30039;51.462;6.892;2023-05-07T07:52:59;6.03;;;3.50;;
44328;SDS011;30039;51.462;6.892;2023-05-07T07:55:45;7.95;;;3.28;;
44328;SDS011;30039;51.462;6.892;2023-05-07T07:58:31;6.15;;;3.10;;
44328;SDS011;30039;51.462;6.892;2023-05-07T08:01:17;4.28;;;3.08;;
44328;SDS011;30039;51.462;6.892;2023-05-07T08:04:02;4.53;;;2.88;;
44328;SDS011;30039;51.462;6.892;2023-05-07T08:06:48;4.78;;;2.92;;
44328;SDS011;30039;51.462;6.892;2023-05-07T08:09:34;4.32;;;3.00;;
44328;SDS011;30039;51.462;6.892;2023-05-07T08:12:19;7.35;;;2.92;;
44328;SDS011;30039;51.462;6.892;2023-05-07T08:15:05;4.40;;;2.85;;
44328;SDS011;30039;51.462;6.892;2023-05-07T08:17:51;5.32;;;3.30;;
44328;SDS011;30039;51.462;6.892;2023-05-07T08:20:37;4.07;;;2.47;;
44328;SDS011;30039;51.462;6.892;2023-05-07T08:23:24;3.67;;;2.28;;
44328;SDS011;30039;51.462;6.892;2023-05-07T08:26:10;4.18;;;2.20;;
44328;SDS011;30039;51.462;6.892;2023-05-07T08:28:56;4.07;;;2.10;;
44328;SDS011;30039;51.462;6.892;2023-05-07T08:31:42;4.63;;;1.85;;
44328;SDS011;30039;51.462;6.892;2023-05-07T08:34:28;2.95;;;2.10;;
44328;SDS011;30039;51.462;6.892;2023-05-07T08:37:13;4.53;;;1.92;;
44328;SDS011;30039;51.462;6.892;2023-05-07T08:39:59;3.55;;;1.92;;
44328;SDS011;30039;51.462;6.892;2023-05-07T08:42:45;6.57;;;2.60;;
44328;SDS011;30039;51.462;6.892;2023-05-07T08:45:32;2.78;;;2.15;;
44328;SDS011;30039;51.462;6.892;2023-05-07T08:48:18;4.85;;;2.03;;
44328;SDS011;30039;51.462;6.892;2023-05-07T08:51:08;2.88;;;2.10;;
44328;SDS011;30039;51.462;6.892;2023-05-07T08:53:54;4.03;;;1.90;;
44328;SDS011;30039;51.462;6.892;2023-05-07T08:56:39;2.50;;;1.90;;
44328;SDS011;30039;51.462;6.892;2023-05-07T08:59:25;3.35;;;2.00;;
44328;SDS011;30039;51.462;6.892;2023-05-07T09:02:11;3.90;;;2.15;;
44328;SDS011;30039;51.462;6.892;2023-05-07T09:04:57;3.75;;;2.00;;
44328;SDS011;30039;51.462;6.892;2023-05-07T09:07:43;3.78;;;2.10;;
44328;SDS011;30039;51.462;6.892;2023-05-07T09:10:29;5.03;;;2.08;;
44328;SDS011;30039;51.462;6.892;2023-05-07T09:13:17;2.38;;;1.70;;
44328;SDS011;30039;51.462;6.892;2023-05-07T09:16:10;3.63;;;2.00;;
44328;SDS011;30039;51.462;6.892;2023-05-07T09:18:57;2.72;;;1.50;;
44328;SDS011;30039;51.462;6.892;2023-05-07T09:21:43;3.25;;;1.92;;
44328;SDS011;30039;51.462;6.892;2023-05-07T09:24:29;5.20;;;1.67;;
44328;SDS011;30039;51.462;6.892;2023-05-07T09:27:19;2.17;;;1.50;;
44328;SDS011;30039;51.462;6.892;2023-05-07T09:30:05;1.90;;;1.50;;
44328;SDS011;30039;51.462;6.892;2023-05-07T09:32:51;4.75;;;1.63;;
44328;SDS011;30039;51.462;6.892;2023-05-07T09:35:37;3.38;;;1.60;;
44328;SDS011;30039;51.462;6.892;2023-05-07T09:38:22;2.72;;;1.55;;
44328;SDS011;30039;51.462;6.892;2023-05-07T09:41:10;3.30;;;1.60;;
44328;SDS011;30039;51.462;6.892;2023-05-07T09:43:56;2.42;;;1.60;;
44328;SDS011;30039;51.462;6.892;2023-05-07T09:46:42;5.50;;;1.73;;
44328;SDS011;30039;51.462;6.892;2023-05-07T09:49:29;4.53;;;1.92;;
44328;SDS011;30039;51.462;6.892;2023-05-07T09:52:15;3.28;;;1.98;;
44328;SDS011;30039;51.462;6.892;2023-05-07T09:55:01;7.15;;;2.38;;
44328;SDS011;30039;51.462;6.892;2023-05-07T09:57:49;5.88;;;2.88;;
44328;SDS011;30039;51.462;6.892;2023-05-07T10:00:35;3.05;;;1.98;;
44328;SDS011;30039;51.462;6.892;2023-05-07T10:03:21;3.25;;;1.60;;
44328;SDS011;30039;51.462;6.892;2023-05-07T10:06:10;2.35;;;1.75;;
44328;SDS011;30039;51.462;6.892;2023-05-07T10:08:57;7.28;;;3.50;;
44328;SDS011;30039;51.462;6.892;2023-05-07T10:11:42;3.05;;;2.08;;
44328;SDS011;30039;51.462;6.892;2023-05-07T10:14:29;3.30;;;1.50;;
44328;SDS011;30039;51.462;6.892;2023-05-07T10:17:15;3.90;;;1.85;;
44328;SDS011;30039;51.462;6.892;2023-05-07T10:20:01;3.10;;;2.10;;
44328;SDS011;30039;51.462;6.892;2023-05-07T10:22:48;4.10;;;2.72;;
44328;SDS011;30039;51.462;6.892;2023-05-07T10:25:34;2.80;;;2.03;;
44328;SDS011;30039;51.462;6.892;2023-05-07T10:28:20;3.25;;;2.03;;
44328;SDS011;30039;51.462;6.892;2023-05-07T10:31:14;3.00;;;2.00;;
44328;SDS011;30039;51.462;6.892;2023-05-07T10:34:07;4.05;;;1.98;;
44328;SDS011;30039;51.462;6.892;2023-05-07T10:36:53;4.25;;;2.40;;
44328;SDS011;30039;51.462;6.892;2023-05-07T10:39:40;5.03;;;2.58;;
44328;SDS011;30039;51.462;6.892;2023-05-07T10:42:26;4.70;;;2.00;;
44328;SDS011;30039;51.462;6.892;2023-05-07T10:45:14;3.28;;;1.92;;
44328;SDS011;30039;51.462;6.892;2023-05-07T10:50:51;2.72;;;1.70;;
44328;SDS011;30039;51.462;6.892;2023-05-07T10:56:54;3.22;;;1.80;;
44328;SDS011;30039;51.462;6.892;2023-05-07T10:59:40;3.05;;;1.83;;
44328;SDS011;30039;51.462;6.892;2023-05-07T11:03:09;3.63;;;1.80;;
44328;SDS011;30039;51.462;6.892;2023-05-07T11:05:36;3.45;;;2.05;;
44328;SDS011;30039;51.462;6.892;2023-05-07T11:08:24;6.75;;;3.08;;
44328;SDS011;30039;51.462;6.892;2023-05-07T11:11:09;2.42;;;1.85;;
44328;SDS011;30039;51.462;6.892;2023-05-07T11:13:55;5.15;;;2.08;;
44328;SDS011;30039;51.462;6.892;2023-05-07T11:16:41;3.78;;;2.63;;
44328;SDS011;30039;51.462;6.892;2023-05-07T11:25:18;8.38;;;2.00;;
44328;SDS011;30039;51.462;6.892;2023-05-07T11:28:05;3.38;;;2.08;;
44328;SDS011;30039;51.462;6.892;2023-05-07T11:30:51;4.07;;;2.05;;
44328;SDS011;30039;51.462;6.892;2023-05-07T11:33:37;3.55;;;2.13;;
44328;SDS011;30039;51.462;6.892;2023-05-07T11:36:23;4.65;;;2.08;;
44328;SDS011;30039;51.462;6.892;2023-05-07T11:39:25;4.63;;;2.17;;
44328;SDS011;30039;51.462;6.892;2023-05-07T11:42:30;3.60;;;2.40;;
44328;SDS011;30039;51.462;6.892;2023-05-07T11:45:22;3.08;;;2.00;;
44328;SDS011;30039;51.462;6.892;2023-05-07T11:48:09;2.95;;;2.13;;
44328;SDS011;30039;51.462;6.892;2023-05-07T11:53:45;3.40;;;1.90;;
44328;SDS011;30039;51.462;6.892;2023-05-07T11:56:33;3.88;;;1.95;;
44328;SDS011;30039;51.462;6.892;2023-05-07T11:59:19;3.72;;;2.00;;
44328;SDS011;30039;51.462;6.892;2023-05-07T12:02:05;3.20;;;1.85;;
44328;SDS011;30039;51.462;6.892;2023-05-07T12:04:51;4.55;;;1.88;;
44328;SDS011;30039;51.462;6.892;2023-05-07T12:07:37;2.90;;;1.70;;
44328;SDS011;30039;51.462;6.892;2023-05-07T12:10:23;2.78;;;1.70;;
44328;SDS011;30039;51.462;6.892;2023-05-07T12:13:20;2.95;;;2.00;;
44328;SDS011;30039;51.462;6.892;2023-05-07T12:16:06;2.95;;;2.00;;
44328;SDS011;30039;51.462;6.892;2023-05-07T12:18:52;5.30;;;2.17;;
44328;SDS011;30039;51.462;6.892;2023-05-07T12:21:40;3.72;;;2.22;;
44328;SDS011;30039;51.462;6.892;2023-05-07T12:24:26;4.05;;;2.63;;
44328;SDS011;30039;51.462;6.892;2023-05-07T12:27:11;3.90;;;2.20;;
44328;SDS011;30039;51.462;6.892;2023-05-07T12:29:57;5.13;;;2.30;;
44328;SDS011;30039;51.462;6.892;2023-05-07T12:32:44;4.65;;;2.20;;
44328;SDS011;30039;51.462;6.892;2023-05-07T12:35:30;3.63;;;2.22;;
44328;SDS011;30039;51.462;6.892;2023-05-07T12:38:16;3.88;;;2.30;;
44328;SDS011;30039;51.462;6.892;2023-05-07T12:41:02;4.63;;;2.17;;
44328;SDS011;30039;51.462;6.892;2023-05-07T12:43:48;3.08;;;2.15;;
44328;SDS011;30039;51.462;6.892;2023-05-07T12:46:38;3.90;;;2.63;;
44328;SDS011;30039;51.462;6.892;2023-05-07T12:49:23;4.90;;;2.65;;
44328;SDS011;30039;51.462;6.892;2023-05-07T12:52:11;3.40;;;2.40;;
44328;SDS011;30039;51.462;6.892;2023-05-07T12:54:56;4.15;;;2.70;;
44328;SDS011;30039;51.462;6.892;2023-05-07T12:57:43;5.10;;;2.50;;
44328;SDS011;30039;51.462;6.892;2023-05-07T13:00:35;4.57;;;2.20;;
44328;SDS011;30039;51.462;6.892;2023-05-07T13:03:22;8.63;;;2.97;;
44328;SDS011;30039;51.462;6.892;2023-05-07T13:06:09;4.82;;;2.90;;
44328;SDS011;30039;51.462;6.892;2023-05-07T13:08:55;4.03;;;2.25;;
44328;SDS011;30039;51.462;6.892;2023-05-07T13:11:40;3.40;;;2.60;;
44328;SDS011;30039;51.462;6.892;2023-05-07T13:14:26;5.68;;;2.80;;
44328;SDS011;30039;51.462;6.892;2023-05-07T13:17:12;5.43;;;3.05;;
44328;SDS011;30039;51.462;6.892;2023-05-07T13:19:57;5.30;;;2.75;;
44328;SDS011;30039;51.462;6.892;2023-05-07T13:22:43;6.10;;;3.03;;
44328;SDS011;30039;51.462;6.892;2023-05-07T13:25:29;6.85;;;2.80;;
44328;SDS011;30039;51.462;6.892;2023-05-07T13:28:15;3.40;;;2.60;;
44328;SDS011;30039;51.462;6.892;2023-05-07T13:31:00;6.25;;;3.65;;
44328;SDS011;30039;51.462;6.892;2023-05-07T13:33:46;14.50;;;5.45;;
44328;SDS011;30039;51.462;6.892;2023-05-07T13:36:32;4.60;;;3.20;;
44328;SDS011;30039;51.462;6.892;2023-05-07T13:39:20;5.30;;;2.97;;
44328;SDS011;30039;51.462;6.892;2023-05-07T13:42:06;4.70;;;3.17;;
44328;SDS011;30039;51.462;6.892;2023-05-07T13:44:52;6.38;;;3.25;;
44328;SDS011;30039;51.462;6.892;2023-05-07T13:47:37;8.55;;;3.72;;
44328;SDS011;30039;51.462;6.892;2023-05-07T13:50:23;10.35;;;4.90;;
44328;SDS011;30039;51.462;6.892;2023-05-07T13:53:09;7.97;;;4.13;;
44328;SDS011;30039;51.462;6.892;2023-05-07T13:55:54;7.68;;;4.90;;
44328;SDS011;30039;51.462;6.892;2023-05-07T13:58:40;8.25;;;4.45;;
44328;SDS011;30039;51.462;6.892;2023-05-07T14:01:26;8.60;;;4.70;;
44328;SDS011;30039;51.462;6.892;2023-05-07T14:04:12;7.85;;;4.10;;
44328;SDS011;30039;51.462;6.892;2023-05-07T14:06:57;9.18;;;4.78;;
44328;SDS011;30039;51.462;6.892;2023-05-07T14:09:43;5.50;;;3.72;;
44328;SDS011;30039;51.462;6.892;2023-05-07T14:12:31;6.60;;;4.15;;
44328;SDS011;30039;51.462;6.892;2023-05-07T14:15:17;6.07;;;3.95;;
44328;SDS011;30039;51.462;6.892;2023-05-07T14:18:02;5.70;;;3.83;;
44328;SDS011;30039;51.462;6.892;2023-05-07T14:20:48;5.85;;;4.00;;
44328;SDS011;30039;51.462;6.892;2023-05-07T14:23:34;8.20;;;3.33;;
44328;SDS011;30039;51.462;6.892;2023-05-07T14:26:19;5.63;;;3.70;;
44328;SDS011;30039;51.462;6.892;2023-05-07T14:29:06;5.97;;;3.70;;
44328;SDS011;30039;51.462;6.892;2023-05-07T14:31:51;6.28;;;3.88;;
44328;SDS011;30039;51.462;6.892;2023-05-07T14:34:37;6.47;;;4.13;;
44328;SDS011;30039;51.462;6.892;2023-05-07T14:37:23;5.72;;;3.55;;
44328;SDS011;30039;51.462;6.892;2023-05-07T14:40:09;10.52;;;5.28;;
44328;SDS011;30039;51.462;6.892;2023-05-07T14:42:55;7.25;;;4.28;;
44328;SDS011;30039;51.462;6.892;2023-05-07T14:45:42;6.97;;;4.03;;
44328;SDS011;30039;51.462;6.892;2023-05-07T14:48:28;7.72;;;4.40;;
44328;SDS011;30039;51.462;6.892;2023-05-07T14:51:14;7.50;;;4.10;;
44328;SDS011;30039;51.462;6.892;2023-05-07T14:54:00;5.20;;;3.72;;
44328;SDS011;30039;51.462;6.892;2023-05-07T14:56:46;5.90;;;3.45;;
44328;SDS011;30039;51.462;6.892;2023-05-07T14:59:32;7.25;;;4.50;;
44328;SDS011;30039;51.462;6.892;2023-05-07T15:02:18;5.88;;;4.00;;
44328;SDS011;30039;51.462;6.892;2023-05-07T15:05:04;7.22;;;4.40;;
44328;SDS011;30039;51.462;6.892;2023-05-07T15:07:50;6.63;;;4.18;;
44328;SDS011;30039;51.462;6.892;2023-05-07T15:10:36;7.72;;;4.70;;
44328;SDS011;30039;51.462;6.892;2023-05-07T15:13:26;6.43;;;4.60;;
44328;SDS011;30039;51.462;6.892;2023-05-07T15:16:12;7.18;;;4.97;;
44328;SDS011;30039;51.462;6.892;2023-05-07T15:18:58;6.45;;;5.00;;
44328;SDS011;30039;51.462;6.892;2023-05-07T15:21:44;10.18;;;5.53;;
44328;SDS011;30039;51.462;6.892;2023-05-07T15:24:29;8.43;;;5.43;;
44328;SDS011;30039;51.462;6.892;2023-05-07T15:27:15;10.02;;;5.45;;
44328;SDS011;30039;51.462;6.892;2023-05-07T15:30:02;10.25;;;6.05;;
44328;SDS011;30039;51.462;6.892;2023-05-07T15:32:48;9.13;;;6.53;;
44328;SDS011;30039;51.462;6.892;2023-05-07T15:35:34;12.10;;;7.05;;
44328;SDS011;30039;51.462;6.892;2023-05-07T15:38:19;8.75;;;6.22;;
44328;SDS011;30039;51.462;6.892;2023-05-07T15:41:05;9.40;;;6.25;;
44328;SDS011;30039;51.462;6.892;2023-05-07T15:43:51;9.43;;;6.28;;
44328;SDS011;30039;51.462;6.892;2023-05-07T15:46:37;8.40;;;6.78;;
44328;SDS011;30039;51.462;6.892;2023-05-07T15:49:23;10.82;;;7.32;;
44328;SDS011;30039;51.462;6.892;2023-05-07T15:52:09;11.85;;;7.53;;
44328;SDS011;30039;51.462;6.892;2023-05-07T15:54:56;10.55;;;7.22;;
44328;SDS011;30039;51.462;6.892;2023-05-07T15:57:42;8.65;;;6.47;;
44328;SDS011;30039;51.462;6.892;2023-05-07T16:00:27;9.60;;;6.40;;
44328;SDS011;30039;51.462;6.892;2023-05-07T16:03:13;12.50;;;6.85;;
44328;SDS011;30039;51.462;6.892;2023-05-07T16:05:59;10.40;;;6.70;;
44328;SDS011;30039;51.462;6.892;2023-05-07T16:08:47;11.70;;;7.03;;
44328;SDS011;30039;51.462;6.892;2023-05-07T16:11:33;9.60;;;7.18;;
44328;SDS011;30039;51.462;6.892;2023-05-07T16:14:19;10.55;;;7.15;;
44328;SDS011;30039;51.462;6.892;2023-05-07T16:17:04;9.70;;;6.68;;
44328;SDS011;30039;51.462;6.892;2023-05-07T16:19:50;9.85;;;7.30;;
44328;SDS011;30039;51.462;6.892;2023-05-07T16:22:36;8.70;;;6.88;;
44328;SDS011;30039;51.462;6.892;2023-05-07T16:25:21;9.65;;;6.68;;
44328;SDS011;30039;51.462;6.892;2023-05-07T16:28:07;10.27;;;6.95;;
44328;SDS011;30039;51.462;6.892;2023-05-07T16:30:53;10.77;;;7.00;;
44328;SDS011;30039;51.462;6.892;2023-05-07T16:33:42;10.60;;;6.40;;
44328;SDS011;30039;51.462;6.892;2023-05-07T16:36:28;10.70;;;7.00;;
44328;SDS011;30039;51.462;6.892;2023-05-07T16:39:14;8.80;;;7.07;;
44328;SDS011;30039;51.462;6.892;2023-05-07T16:42:00;9.65;;;6.30;;
44328;SDS011;30039;51.462;6.892;2023-05-07T16:44:47;13.27;;;6.53;;
44328;SDS011;30039;51.462;6.892;2023-05-07T16:47:34;10.30;;;6.78;;
44328;SDS011;30039;51.462;6.892;2023-05-07T16:50:26;10.02;;;6.97;;
44328;SDS011;30039;51.462;6.892;2023-05-07T16:53:19;9.38;;;6.55;;